sensor_id;sensor_type;location;lat;lon;timestamp;P1;durP1;ratioP1;P2;durP2;ratioP2
56667;SDS011;42542;48.360;10.958;2023-02-28T00:02:55;7.88;;;2.60;;
56667;SDS011;42542;48.360;10.958;2023-02-28T00:05:56;7.85;;;2.35;;
56667;SDS011;42542;48.360;10.958;2023-02-28T00:08:59;7.50;;;2.67;;
56667;SDS011;42542;48.360;10.958;2023-02-28T00:12:01;7.38;;;2.50;;
56667;SDS011;42542;48.360;10.958;2023-02-28T00:15:11;9.38;;;2.70;;
56667;SDS011;42542;48.360;10.958;2023-02-28T00:18:13;7.55;;;2.67;;
56667;SDS011;42542;48.360;10.958;2023-02-28T00:21:15;7.35;;;2.65;;
56667;SDS011;42542;48.360;10.958;2023-02-28T00:24:17;8.07;;;2.83;;
56667;SDS011;42542;48.360;10.958;2023-02-28T00:27:19;8.43;;;2.70;;
56667;SDS011;42542;48.360;10.958;2023-02-28T00:30:22;8.80;;;2.80;;
56667;SDS011;42542;48.360;10.958;2023-02-28T00:33:24;7.07;;;2.33;;
56667;SDS011;42542;48.360;10.958;2023-02-28T00:36:29;8.35;;;2.53;;
56667;SDS011;42542;48.360;10.958;2023-02-28T00:39:33;8.17;;;2.80;;
56667;SDS011;42542;48.360;10.958;2023-02-28T00:42:36;8.00;;;2.67;;
56667;SDS011;42542;48.360;10.958;2023-02-28T00:45:38;9.60;;;3.05;;
56667;SDS011;42542;48.360;10.958;2023-02-28T00:48:39;7.45;;;2.78;;
56667;SDS011;42542;48.360;10.958;2023-02-28T00:51:42;8.40;;;2.80;;
56667;SDS011;42542;48.360;10.958;2023-02-28T00:54:43;7.53;;;2.40;;
56667;SDS011;42542;48.360;10.958;2023-02-28T00:57:45;8.77;;;2.50;;
56667;SDS011;42542;48.360;10.958;2023-02-28T01:00:47;9.67;;;2.53;;
56667;SDS011;42542;48.360;10.958;2023-02-28T01:03:50;9.82;;;2.90;;
56667;SDS011;42542;48.360;10.958;2023-02-28T01:06:52;10.85;;;2.53;;
56667;SDS011;42542;48.360;10.958;2023-02-28T01:09:55;7.87;;;2.77;;
56667;SDS011;42542;48.360;10.958;2023-02-28T01:12:58;8.27;;;2.72;;
56667;SDS011;42542;48.360;10.958;2023-02-28T01:16:00;8.98;;;2.90;;
56667;SDS011;42542;48.360;10.958;2023-02-28T01:19:02;8.95;;;2.70;;
56667;SDS011;42542;48.360;10.958;2023-02-28T01:22:04;7.30;;;2.67;;
56667;SDS011;42542;48.360;10.958;2023-02-28T01:25:06;8.55;;;2.78;;
56667;SDS011;42542;48.360;10.958;2023-02-28T01:28:08;8.75;;;2.70;;
56667;SDS011;42542;48.360;10.958;2023-02-28T01:31:10;10.50;;;2.50;;
56667;SDS011;42542;48.360;10.958;2023-02-28T01:34:12;8.02;;;2.70;;
56667;SDS011;42542;48.360;10.958;2023-02-28T01:37:14;8.40;;;2.85;;
56667;SDS011;42542;48.360;10.958;2023-02-28T01:40:17;7.70;;;2.53;;
56667;SDS011;42542;48.360;10.958;2023-02-28T01:43:21;7.72;;;2.35;;
56667;SDS011;42542;48.360;10.958;2023-02-28T01:46:25;7.45;;;2.60;;
56667;SDS011;42542;48.360;10.958;2023-02-28T01:49:27;7.50;;;2.58;;
56667;SDS011;42542;48.360;10.958;2023-02-28T01:52:30;7.68;;;2.90;;
56667;SDS011;42542;48.360;10.958;2023-02-28T01:55:33;9.48;;;3.00;;
56667;SDS011;42542;48.360;10.958;2023-02-28T01:58:36;8.35;;;2.80;;
56667;SDS011;42542;48.360;10.958;2023-02-28T02:01:38;7.63;;;2.57;;
56667;SDS011;42542;48.360;10.958;2023-02-28T02:04:42;8.25;;;2.60;;
56667;SDS011;42542;48.360;10.958;2023-02-28T02:07:54;9.10;;;2.92;;
56667;SDS011;42542;48.360;10.958;2023-02-28T02:10:59;8.80;;;2.70;;
56667;SDS011;42542;48.360;10.958;2023-02-28T02:17:44;7.30;;;2.50;;
56667;SDS011;42542;48.360;10.958;2023-02-28T02:38:04;9.35;;;3.08;;
56667;SDS011;42542;48.360;10.958;2023-02-28T02:41:23;9.55;;;3.45;;
56667;SDS011;42542;48.360;10.958;2023-02-28T02:44:40;8.60;;;2.73;;
56667;SDS011;42542;48.360;10.958;2023-02-28T02:47:47;7.25;;;2.55;;
56667;SDS011;42542;48.360;10.958;2023-02-28T02:50:52;9.30;;;3.03;;
56667;SDS011;42542;48.360;10.958;2023-02-28T02:54:00;9.20;;;3.13;;
56667;SDS011;42542;48.360;10.958;2023-02-28T02:57:10;11.60;;;3.17;;
56667;SDS011;42542;48.360;10.958;2023-02-28T03:00:44;10.10;;;3.55;;
56667;SDS011;42542;48.360;10.958;2023-02-28T03:03:51;9.93;;;3.10;;
56667;SDS011;42542;48.360;10.958;2023-02-28T03:06:53;8.53;;;2.87;;
56667;SDS011;42542;48.360;10.958;2023-02-28T03:09:56;10.57;;;3.22;;
56667;SDS011;42542;48.360;10.958;2023-02-28T03:19:51;12.40;;;3.58;;
56667;SDS011;42542;48.360;10.958;2023-02-28T03:23:10;10.57;;;3.50;;
56667;SDS011;42542;48.360;10.958;2023-02-28T03:26:19;8.43;;;3.20;;
56667;SDS011;42542;48.360;10.958;2023-02-28T03:29:28;10.13;;;3.17;;
56667;SDS011;42542;48.360;10.958;2023-02-28T03:32:38;9.85;;;3.55;;
56667;SDS011;42542;48.360;10.958;2023-02-28T03:35:49;10.00;;;3.45;;
56667;SDS011;42542;48.360;10.958;2023-02-28T03:38:58;10.40;;;3.53;;
56667;SDS011;42542;48.360;10.958;2023-02-28T03:42:20;12.45;;;3.90;;
56667;SDS011;42542;48.360;10.958;2023-02-28T03:45:30;10.93;;;3.58;;
56667;SDS011;42542;48.360;10.958;2023-02-28T03:48:41;11.23;;;3.67;;
56667;SDS011;42542;48.360;10.958;2023-02-28T03:51:47;10.40;;;3.60;;
56667;SDS011;42542;48.360;10.958;2023-02-28T03:54:53;11.77;;;3.90;;
56667;SDS011;42542;48.360;10.958;2023-02-28T04:01:23;10.88;;;3.80;;
56667;SDS011;42542;48.360;10.958;2023-02-28T04:04:42;11.55;;;3.70;;
56667;SDS011;42542;48.360;10.958;2023-02-28T04:07:46;11.18;;;4.03;;
56667;SDS011;42542;48.360;10.958;2023-02-28T04:10:51;11.27;;;3.80;;
56667;SDS011;42542;48.360;10.958;2023-02-28T04:13:59;10.77;;;4.20;;
56667;SDS011;42542;48.360;10.958;2023-02-28T04:17:00;10.75;;;4.07;;
56667;SDS011;42542;48.360;10.958;2023-02-28T04:20:03;12.40;;;4.00;;
56667;SDS011;42542;48.360;10.958;2023-02-28T04:23:10;12.05;;;4.07;;
56667;SDS011;42542;48.360;10.958;2023-02-28T04:26:12;11.50;;;4.15;;
56667;SDS011;42542;48.360;10.958;2023-02-28T04:29:17;12.77;;;4.43;;
56667;SDS011;42542;48.360;10.958;2023-02-28T04:32:24;12.73;;;4.53;;
56667;SDS011;42542;48.360;10.958;2023-02-28T04:35:28;11.50;;;4.25;;
56667;SDS011;42542;48.360;10.958;2023-02-28T04:38:32;12.55;;;4.68;;
56667;SDS011;42542;48.360;10.958;2023-02-28T04:41:37;9.80;;;3.83;;
56667;SDS011;42542;48.360;10.958;2023-02-28T04:44:38;13.40;;;4.50;;
56667;SDS011;42542;48.360;10.958;2023-02-28T04:47:40;13.93;;;4.95;;
56667;SDS011;42542;48.360;10.958;2023-02-28T04:50:42;11.67;;;4.50;;
56667;SDS011;42542;48.360;10.958;2023-02-28T04:53:45;12.23;;;4.75;;
56667;SDS011;42542;48.360;10.958;2023-02-28T04:56:47;12.75;;;4.65;;
56667;SDS011;42542;48.360;10.958;2023-02-28T04:59:51;12.60;;;4.63;;
56667;SDS011;42542;48.360;10.958;2023-02-28T05:02:55;11.02;;;3.92;;
56667;SDS011;42542;48.360;10.958;2023-02-28T05:05:57;14.07;;;5.00;;
56667;SDS011;42542;48.360;10.958;2023-02-28T05:08:59;11.15;;;4.18;;
56667;SDS011;42542;48.360;10.958;2023-02-28T05:12:05;12.10;;;4.87;;
56667;SDS011;42542;48.360;10.958;2023-02-28T05:15:09;13.80;;;4.78;;
56667;SDS011;42542;48.360;10.958;2023-02-28T05:18:14;12.63;;;4.55;;
56667;SDS011;42542;48.360;10.958;2023-02-28T05:24:27;13.90;;;4.75;;
56667;SDS011;42542;48.360;10.958;2023-02-28T05:27:30;12.68;;;4.53;;
56667;SDS011;42542;48.360;10.958;2023-02-28T05:30:33;12.82;;;4.70;;
56667;SDS011;42542;48.360;10.958;2023-02-28T05:33:34;15.80;;;5.40;;
56667;SDS011;42542;48.360;10.958;2023-02-28T05:36:38;17.40;;;5.88;;
56667;SDS011;42542;48.360;10.958;2023-02-28T05:39:40;13.90;;;5.03;;
56667;SDS011;42542;48.360;10.958;2023-02-28T05:42:42;17.53;;;5.80;;
56667;SDS011;42542;48.360;10.958;2023-02-28T05:45:44;13.95;;;4.95;;
56667;SDS011;42542;48.360;10.958;2023-02-28T05:48:46;13.45;;;4.82;;
56667;SDS011;42542;48.360;10.958;2023-02-28T05:51:49;14.77;;;5.17;;
56667;SDS011;42542;48.360;10.958;2023-02-28T05:54:51;14.82;;;5.28;;
56667;SDS011;42542;48.360;10.958;2023-02-28T05:57:52;17.52;;;5.43;;
56667;SDS011;42542;48.360;10.958;2023-02-28T06:00:54;13.93;;;4.88;;
56667;SDS011;42542;48.360;10.958;2023-02-28T06:03:57;15.77;;;5.25;;
56667;SDS011;42542;48.360;10.958;2023-02-28T06:07:03;16.70;;;5.90;;
56667;SDS011;42542;48.360;10.958;2023-02-28T06:10:05;15.93;;;5.50;;
56667;SDS011;42542;48.360;10.958;2023-02-28T06:13:07;14.23;;;5.60;;
56667;SDS011;42542;48.360;10.958;2023-02-28T06:16:10;13.75;;;5.25;;
56667;SDS011;42542;48.360;10.958;2023-02-28T06:19:12;14.68;;;5.70;;
56667;SDS011;42542;48.360;10.958;2023-02-28T06:22:14;14.70;;;5.40;;
56667;SDS011;42542;48.360;10.958;2023-02-28T06:25:17;13.93;;;5.60;;
56667;SDS011;42542;48.360;10.958;2023-02-28T06:28:19;14.55;;;5.65;;
56667;SDS011;42542;48.360;10.958;2023-02-28T06:31:20;13.50;;;5.13;;
56667;SDS011;42542;48.360;10.958;2023-02-28T06:34:23;14.95;;;5.68;;
56667;SDS011;42542;48.360;10.958;2023-02-28T06:37:25;13.60;;;5.43;;
56667;SDS011;42542;48.360;10.958;2023-02-28T06:40:28;14.75;;;5.50;;
56667;SDS011;42542;48.360;10.958;2023-02-28T06:43:35;16.67;;;5.40;;
56667;SDS011;42542;48.360;10.958;2023-02-28T06:46:40;15.30;;;5.70;;
56667;SDS011;42542;48.360;10.958;2023-02-28T06:49:43;15.45;;;5.60;;
56667;SDS011;42542;48.360;10.958;2023-02-28T06:52:46;12.87;;;4.60;;
56667;SDS011;42542;48.360;10.958;2023-02-28T06:55:48;15.98;;;5.32;;
56667;SDS011;42542;48.360;10.958;2023-02-28T06:58:50;16.02;;;5.47;;
56667;SDS011;42542;48.360;10.958;2023-02-28T07:01:54;15.13;;;5.30;;
56667;SDS011;42542;48.360;10.958;2023-02-28T07:04:58;15.73;;;5.38;;
56667;SDS011;42542;48.360;10.958;2023-02-28T07:08:01;16.48;;;5.60;;
56667;SDS011;42542;48.360;10.958;2023-02-28T07:11:04;14.70;;;5.65;;
56667;SDS011;42542;48.360;10.958;2023-02-28T07:14:06;15.37;;;5.87;;
56667;SDS011;42542;48.360;10.958;2023-02-28T07:17:09;15.27;;;5.40;;
56667;SDS011;42542;48.360;10.958;2023-02-28T07:20:13;15.63;;;4.95;;
56667;SDS011;42542;48.360;10.958;2023-02-28T07:23:15;15.70;;;5.37;;
56667;SDS011;42542;48.360;10.958;2023-02-28T07:26:17;15.25;;;5.70;;
56667;SDS011;42542;48.360;10.958;2023-02-28T07:29:21;15.05;;;5.15;;
56667;SDS011;42542;48.360;10.958;2023-02-28T07:32:22;14.63;;;5.40;;
56667;SDS011;42542;48.360;10.958;2023-02-28T07:35:24;15.45;;;5.28;;
56667;SDS011;42542;48.360;10.958;2023-02-28T07:38:26;17.02;;;5.43;;
56667;SDS011;42542;48.360;10.958;2023-02-28T07:41:30;14.82;;;5.53;;
56667;SDS011;42542;48.360;10.958;2023-02-28T07:44:37;15.87;;;5.13;;
56667;SDS011;42542;48.360;10.958;2023-02-28T07:47:41;15.27;;;5.40;;
56667;SDS011;42542;48.360;10.958;2023-02-28T07:50:43;13.57;;;5.55;;
56667;SDS011;42542;48.360;10.958;2023-02-28T07:53:45;14.60;;;5.33;;
56667;SDS011;42542;48.360;10.958;2023-02-28T07:56:47;15.55;;;5.75;;
56667;SDS011;42542;48.360;10.958;2023-02-28T07:59:48;16.25;;;5.82;;
56667;SDS011;42542;48.360;10.958;2023-02-28T08:02:50;14.88;;;5.80;;
56667;SDS011;42542;48.360;10.958;2023-02-28T08:05:52;16.83;;;5.60;;
56667;SDS011;42542;48.360;10.958;2023-02-28T08:08:54;16.33;;;5.68;;
56667;SDS011;42542;48.360;10.958;2023-02-28T08:11:58;16.70;;;6.18;;
56667;SDS011;42542;48.360;10.958;2023-02-28T08:15:01;17.53;;;6.50;;
56667;SDS011;42542;48.360;10.958;2023-02-28T08:18:03;17.55;;;6.00;;
56667;SDS011;42542;48.360;10.958;2023-02-28T08:21:09;16.40;;;6.25;;
56667;SDS011;42542;48.360;10.958;2023-02-28T08:24:11;16.77;;;6.10;;
56667;SDS011;42542;48.360;10.958;2023-02-28T08:27:13;18.60;;;6.70;;
56667;SDS011;42542;48.360;10.958;2023-02-28T08:30:15;22.05;;;7.35;;
56667;SDS011;42542;48.360;10.958;2023-02-28T08:33:17;16.40;;;5.55;;
56667;SDS011;42542;48.360;10.958;2023-02-28T08:36:18;17.08;;;6.53;;
56667;SDS011;42542;48.360;10.958;2023-02-28T08:39:21;16.90;;;6.30;;
56667;SDS011;42542;48.360;10.958;2023-02-28T08:42:23;17.40;;;6.05;;
56667;SDS011;42542;48.360;10.958;2023-02-28T08:45:25;19.40;;;6.33;;
56667;SDS011;42542;48.360;10.958;2023-02-28T08:48:27;18.13;;;6.53;;
56667;SDS011;42542;48.360;10.958;2023-02-28T08:51:31;17.92;;;6.40;;
56667;SDS011;42542;48.360;10.958;2023-02-28T08:54:33;14.80;;;6.03;;
56667;SDS011;42542;48.360;10.958;2023-02-28T08:57:37;16.98;;;6.63;;
56667;SDS011;42542;48.360;10.958;2023-02-28T09:00:39;17.35;;;6.72;;
56667;SDS011;42542;48.360;10.958;2023-02-28T09:03:42;17.67;;;6.65;;
56667;SDS011;42542;48.360;10.958;2023-02-28T09:06:44;18.52;;;6.55;;
56667;SDS011;42542;48.360;10.958;2023-02-28T09:09:46;20.10;;;6.97;;
56667;SDS011;42542;48.360;10.958;2023-02-28T09:12:56;17.63;;;6.57;;
56667;SDS011;42542;48.360;10.958;2023-02-28T09:16:00;17.90;;;6.30;;
56667;SDS011;42542;48.360;10.958;2023-02-28T09:19:02;18.90;;;6.75;;
56667;SDS011;42542;48.360;10.958;2023-02-28T09:22:07;16.98;;;6.63;;
56667;SDS011;42542;48.360;10.958;2023-02-28T09:25:09;17.33;;;6.47;;
56667;SDS011;42542;48.360;10.958;2023-02-28T09:28:12;18.90;;;6.80;;
56667;SDS011;42542;48.360;10.958;2023-02-28T09:31:15;17.88;;;6.38;;
56667;SDS011;42542;48.360;10.958;2023-02-28T09:34:22;18.20;;;6.60;;
56667;SDS011;42542;48.360;10.958;2023-02-28T09:37:24;16.08;;;6.72;;
56667;SDS011;42542;48.360;10.958;2023-02-28T09:40:27;20.15;;;6.68;;
56667;SDS011;42542;48.360;10.958;2023-02-28T09:43:33;19.08;;;6.80;;
56667;SDS011;42542;48.360;10.958;2023-02-28T09:46:47;19.13;;;6.73;;
56667;SDS011;42542;48.360;10.958;2023-02-28T09:49:53;18.17;;;7.03;;
56667;SDS011;42542;48.360;10.958;2023-02-28T09:52:57;17.27;;;6.60;;
56667;SDS011;42542;48.360;10.958;2023-02-28T09:56:13;17.10;;;6.90;;
56667;SDS011;42542;48.360;10.958;2023-02-28T10:02:56;17.15;;;6.32;;
56667;SDS011;42542;48.360;10.958;2023-02-28T10:09:27;16.60;;;6.22;;
56667;SDS011;42542;48.360;10.958;2023-02-28T10:12:39;18.88;;;6.88;;
56667;SDS011;42542;48.360;10.958;2023-02-28T10:15:48;19.33;;;7.20;;
56667;SDS011;42542;48.360;10.958;2023-02-28T10:19:14;17.20;;;6.87;;
56667;SDS011;42542;48.360;10.958;2023-02-28T10:25:57;16.00;;;6.25;;
56667;SDS011;42542;48.360;10.958;2023-02-28T10:29:11;16.43;;;6.63;;
56667;SDS011;42542;48.360;10.958;2023-02-28T10:32:15;17.63;;;6.80;;
56667;SDS011;42542;48.360;10.958;2023-02-28T10:35:22;16.88;;;6.72;;
56667;SDS011;42542;48.360;10.958;2023-02-28T10:38:27;18.88;;;7.22;;
56667;SDS011;42542;48.360;10.958;2023-02-28T10:41:31;17.35;;;7.50;;
56667;SDS011;42542;48.360;10.958;2023-02-28T10:44:40;18.42;;;7.50;;
56667;SDS011;42542;48.360;10.958;2023-02-28T10:50:55;17.03;;;6.30;;
56667;SDS011;42542;48.360;10.958;2023-02-28T10:53:59;19.52;;;7.28;;
56667;SDS011;42542;48.360;10.958;2023-02-28T10:57:22;17.60;;;7.13;;
56667;SDS011;42542;48.360;10.958;2023-02-28T11:00:34;18.80;;;7.23;;
56667;SDS011;42542;48.360;10.958;2023-02-28T11:03:38;18.75;;;7.22;;
56667;SDS011;42542;48.360;10.958;2023-02-28T11:06:41;18.17;;;7.22;;
56667;SDS011;42542;48.360;10.958;2023-02-28T11:09:44;21.02;;;7.95;;
56667;SDS011;42542;48.360;10.958;2023-02-28T11:12:53;18.67;;;7.45;;
56667;SDS011;42542;48.360;10.958;2023-02-28T11:16:00;18.58;;;7.70;;
56667;SDS011;42542;48.360;10.958;2023-02-28T11:19:06;16.92;;;7.07;;
56667;SDS011;42542;48.360;10.958;2023-02-28T11:22:22;16.73;;;6.87;;
56667;SDS011;42542;48.360;10.958;2023-02-28T11:25:35;19.90;;;7.43;;
56667;SDS011;42542;48.360;10.958;2023-02-28T11:28:41;17.77;;;6.50;;
56667;SDS011;42542;48.360;10.958;2023-02-28T11:38:28;18.98;;;7.82;;
56667;SDS011;42542;48.360;10.958;2023-02-28T11:48:20;18.42;;;6.80;;
56667;SDS011;42542;48.360;10.958;2023-02-28T11:58:44;18.90;;;7.47;;
56667;SDS011;42542;48.360;10.958;2023-02-28T12:08:44;18.70;;;6.75;;
56667;SDS011;42542;48.360;10.958;2023-02-28T12:12:03;16.73;;;6.78;;
56667;SDS011;42542;48.360;10.958;2023-02-28T12:15:22;16.77;;;7.07;;
56667;SDS011;42542;48.360;10.958;2023-02-28T12:25:22;17.00;;;7.25;;
56667;SDS011;42542;48.360;10.958;2023-02-28T12:28:44;17.20;;;6.97;;
56667;SDS011;42542;48.360;10.958;2023-02-28T12:31:55;17.98;;;7.43;;
56667;SDS011;42542;48.360;10.958;2023-02-28T12:35:21;18.00;;;6.53;;
56667;SDS011;42542;48.360;10.958;2023-02-28T12:38:38;19.70;;;7.17;;
56667;SDS011;42542;48.360;10.958;2023-02-28T12:42:32;20.17;;;7.28;;
56667;SDS011;42542;48.360;10.958;2023-02-28T12:45:17;18.05;;;6.82;;
56667;SDS011;42542;48.360;10.958;2023-02-28T12:51:36;17.80;;;6.68;;
56667;SDS011;42542;48.360;10.958;2023-02-28T13:04:51;17.65;;;6.85;;
56667;SDS011;42542;48.360;10.958;2023-02-28T13:08:24;17.17;;;6.53;;
56667;SDS011;42542;48.360;10.958;2023-02-28T13:14:47;18.92;;;6.38;;
56667;SDS011;42542;48.360;10.958;2023-02-28T13:17:52;17.58;;;6.78;;
56667;SDS011;42542;48.360;10.958;2023-02-28T13:20:57;17.15;;;6.72;;
56667;SDS011;42542;48.360;10.958;2023-02-28T13:24:04;17.52;;;7.15;;
56667;SDS011;42542;48.360;10.958;2023-02-28T13:27:21;18.52;;;7.15;;
56667;SDS011;42542;48.360;10.958;2023-02-28T13:40:29;18.35;;;7.15;;
56667;SDS011;42542;48.360;10.958;2023-02-28T13:53:34;17.13;;;7.10;;
56667;SDS011;42542;48.360;10.958;2023-02-28T14:07:16;17.30;;;7.00;;
56667;SDS011;42542;48.360;10.958;2023-02-28T14:13:42;18.70;;;7.13;;
56667;SDS011;42542;48.360;10.958;2023-02-28T14:16:47;17.73;;;7.70;;
56667;SDS011;42542;48.360;10.958;2023-02-28T14:19:51;17.95;;;7.00;;
56667;SDS011;42542;48.360;10.958;2023-02-28T14:26:23;15.40;;;6.68;;
56667;SDS011;42542;48.360;10.958;2023-02-28T14:33:26;19.70;;;7.07;;
56667;SDS011;42542;48.360;10.958;2023-02-28T14:36:35;15.25;;;6.43;;
56667;SDS011;42542;48.360;10.958;2023-02-28T14:39:40;16.57;;;6.70;;
56667;SDS011;42542;48.360;10.958;2023-02-28T14:42:54;15.60;;;6.45;;
56667;SDS011;42542;48.360;10.958;2023-02-28T14:45:59;18.27;;;7.03;;
56667;SDS011;42542;48.360;10.958;2023-02-28T14:49:05;16.43;;;6.77;;
56667;SDS011;42542;48.360;10.958;2023-02-28T14:55:12;18.77;;;7.57;;
56667;SDS011;42542;48.360;10.958;2023-02-28T14:58:21;15.35;;;6.57;;
56667;SDS011;42542;48.360;10.958;2023-02-28T15:01:31;16.45;;;6.47;;
56667;SDS011;42542;48.360;10.958;2023-02-28T15:04:38;17.85;;;6.95;;
56667;SDS011;42542;48.360;10.958;2023-02-28T15:07:42;20.15;;;7.28;;
56667;SDS011;42542;48.360;10.958;2023-02-28T15:10:53;16.43;;;6.53;;
56667;SDS011;42542;48.360;10.958;2023-02-28T15:13:57;16.63;;;7.05;;
56667;SDS011;42542;48.360;10.958;2023-02-28T15:17:00;17.40;;;7.10;;
56667;SDS011;42542;48.360;10.958;2023-02-28T15:20:10;17.93;;;6.70;;
56667;SDS011;42542;48.360;10.958;2023-02-28T15:23:15;17.42;;;7.22;;
56667;SDS011;42542;48.360;10.958;2023-02-28T15:26:20;19.58;;;7.10;;
56667;SDS011;42542;48.360;10.958;2023-02-28T15:29:26;17.88;;;6.57;;
56667;SDS011;42542;48.360;10.958;2023-02-28T15:32:32;17.33;;;7.03;;
56667;SDS011;42542;48.360;10.958;2023-02-28T15:35:37;17.75;;;6.93;;
56667;SDS011;42542;48.360;10.958;2023-02-28T15:38:44;15.27;;;6.55;;
56667;SDS011;42542;48.360;10.958;2023-02-28T15:42:09;15.80;;;6.63;;
56667;SDS011;42542;48.360;10.958;2023-02-28T15:45:27;20.30;;;8.52;;
56667;SDS011;42542;48.360;10.958;2023-02-28T15:51:55;18.30;;;8.10;;
56667;SDS011;42542;48.360;10.958;2023-02-28T15:55:15;19.35;;;7.78;;
56667;SDS011;42542;48.360;10.958;2023-02-28T15:58:20;17.42;;;7.25;;
56667;SDS011;42542;48.360;10.958;2023-02-28T16:01:24;17.73;;;7.00;;
56667;SDS011;42542;48.360;10.958;2023-02-28T16:04:30;19.58;;;7.60;;
56667;SDS011;42542;48.360;10.958;2023-02-28T16:07:33;20.08;;;8.02;;
56667;SDS011;42542;48.360;10.958;2023-02-28T16:10:37;19.08;;;7.82;;
56667;SDS011;42542;48.360;10.958;2023-02-28T16:13:39;19.47;;;7.50;;
56667;SDS011;42542;48.360;10.958;2023-02-28T16:16:48;17.75;;;7.72;;
56667;SDS011;42542;48.360;10.958;2023-02-28T16:19:52;17.48;;;7.00;;
56667;SDS011;42542;48.360;10.958;2023-02-28T16:22:55;19.10;;;7.70;;
56667;SDS011;42542;48.360;10.958;2023-02-28T16:25:57;18.85;;;7.78;;
56667;SDS011;42542;48.360;10.958;2023-02-28T16:29:01;19.75;;;7.80;;
56667;SDS011;42542;48.360;10.958;2023-02-28T16:32:07;18.30;;;7.32;;
56667;SDS011;42542;48.360;10.958;2023-02-28T16:35:10;17.58;;;6.90;;
56667;SDS011;42542;48.360;10.958;2023-02-28T16:38:14;20.02;;;7.78;;
56667;SDS011;42542;48.360;10.958;2023-02-28T16:41:20;21.25;;;8.05;;
56667;SDS011;42542;48.360;10.958;2023-02-28T16:44:27;18.37;;;7.37;;
56667;SDS011;42542;48.360;10.958;2023-02-28T16:47:30;21.77;;;7.13;;
56667;SDS011;42542;48.360;10.958;2023-02-28T16:50:34;21.17;;;8.18;;
56667;SDS011;42542;48.360;10.958;2023-02-28T16:53:38;19.80;;;8.40;;
56667;SDS011;42542;48.360;10.958;2023-02-28T16:56:41;20.70;;;8.13;;
56667;SDS011;42542;48.360;10.958;2023-02-28T16:59:46;18.67;;;7.53;;
56667;SDS011;42542;48.360;10.958;2023-02-28T17:02:48;21.20;;;7.63;;
56667;SDS011;42542;48.360;10.958;2023-02-28T17:05:51;19.17;;;7.85;;
56667;SDS011;42542;48.360;10.958;2023-02-28T17:08:53;19.58;;;8.43;;
56667;SDS011;42542;48.360;10.958;2023-02-28T17:11:55;18.52;;;7.53;;
56667;SDS011;42542;48.360;10.958;2023-02-28T17:14:59;23.10;;;9.33;;
56667;SDS011;42542;48.360;10.958;2023-02-28T17:18:01;29.80;;;12.15;;
56667;SDS011;42542;48.360;10.958;2023-02-28T17:21:05;29.65;;;11.98;;
56667;SDS011;42542;48.360;10.958;2023-02-28T17:24:15;26.00;;;10.50;;
56667;SDS011;42542;48.360;10.958;2023-02-28T17:27:31;26.17;;;11.30;;
56667;SDS011;42542;48.360;10.958;2023-02-28T17:30:33;24.70;;;10.70;;
56667;SDS011;42542;48.360;10.958;2023-02-28T17:33:39;26.35;;;11.32;;
56667;SDS011;42542;48.360;10.958;2023-02-28T17:36:42;25.38;;;11.27;;
56667;SDS011;42542;48.360;10.958;2023-02-28T17:39:45;24.33;;;9.30;;
56667;SDS011;42542;48.360;10.958;2023-02-28T17:42:47;26.48;;;10.32;;
56667;SDS011;42542;48.360;10.958;2023-02-28T17:45:50;23.20;;;9.50;;
56667;SDS011;42542;48.360;10.958;2023-02-28T17:48:52;22.88;;;9.35;;
56667;SDS011;42542;48.360;10.958;2023-02-28T17:51:55;21.67;;;9.13;;
56667;SDS011;42542;48.360;10.958;2023-02-28T17:54:57;21.13;;;8.70;;
56667;SDS011;42542;48.360;10.958;2023-02-28T17:57:59;22.45;;;9.82;;
56667;SDS011;42542;48.360;10.958;2023-02-28T18:01:02;24.73;;;9.52;;
56667;SDS011;42542;48.360;10.958;2023-02-28T18:04:04;22.98;;;8.95;;
56667;SDS011;42542;48.360;10.958;2023-02-28T18:07:07;22.50;;;8.52;;
56667;SDS011;42542;48.360;10.958;2023-02-28T18:10:16;22.98;;;8.45;;
56667;SDS011;42542;48.360;10.958;2023-02-28T18:13:20;23.70;;;8.77;;
56667;SDS011;42542;48.360;10.958;2023-02-28T18:16:22;22.73;;;9.07;;
56667;SDS011;42542;48.360;10.958;2023-02-28T18:19:24;23.08;;;9.07;;
56667;SDS011;42542;48.360;10.958;2023-02-28T18:22:26;32.10;;;12.07;;
56667;SDS011;42542;48.360;10.958;2023-02-28T18:25:27;29.57;;;11.33;;
56667;SDS011;42542;48.360;10.958;2023-02-28T18:28:29;29.77;;;10.35;;
56667;SDS011;42542;48.360;10.958;2023-02-28T18:31:35;26.70;;;10.30;;
56667;SDS011;42542;48.360;10.958;2023-02-28T18:34:36;25.55;;;10.48;;
56667;SDS011;42542;48.360;10.958;2023-02-28T18:37:40;29.15;;;11.00;;
56667;SDS011;42542;48.360;10.958;2023-02-28T18:40:44;27.80;;;10.07;;
56667;SDS011;42542;48.360;10.958;2023-02-28T18:43:53;25.30;;;8.80;;
56667;SDS011;42542;48.360;10.958;2023-02-28T18:46:55;22.93;;;8.80;;
56667;SDS011;42542;48.360;10.958;2023-02-28T18:49:57;22.98;;;8.95;;
56667;SDS011;42542;48.360;10.958;2023-02-28T18:53:01;22.33;;;8.75;;
56667;SDS011;42542;48.360;10.958;2023-02-28T18:56:04;20.30;;;7.80;;
56667;SDS011;42542;48.360;10.958;2023-02-28T18:59:06;22.13;;;8.52;;
56667;SDS011;42542;48.360;10.958;2023-02-28T19:02:10;20.70;;;7.68;;
56667;SDS011;42542;48.360;10.958;2023-02-28T19:05:15;18.30;;;7.75;;
56667;SDS011;42542;48.360;10.958;2023-02-28T19:08:18;22.70;;;8.68;;
56667;SDS011;42542;48.360;10.958;2023-02-28T19:11:20;23.15;;;9.13;;
56667;SDS011;42542;48.360;10.958;2023-02-28T19:14:22;20.30;;;8.05;;
56667;SDS011;42542;48.360;10.958;2023-02-28T19:17:24;22.87;;;7.90;;
56667;SDS011;42542;48.360;10.958;2023-02-28T19:20:26;18.67;;;7.70;;
56667;SDS011;42542;48.360;10.958;2023-02-28T19:23:27;19.95;;;7.68;;
56667;SDS011;42542;48.360;10.958;2023-02-28T19:26:32;23.07;;;8.67;;
56667;SDS011;42542;48.360;10.958;2023-02-28T19:29:34;18.63;;;7.70;;
56667;SDS011;42542;48.360;10.958;2023-02-28T19:32:35;18.20;;;7.88;;
56667;SDS011;42542;48.360;10.958;2023-02-28T19:35:39;21.02;;;8.73;;
56667;SDS011;42542;48.360;10.958;2023-02-28T19:38:42;21.52;;;8.10;;
56667;SDS011;42542;48.360;10.958;2023-02-28T19:41:47;19.08;;;7.68;;
56667;SDS011;42542;48.360;10.958;2023-02-28T19:44:49;20.20;;;7.50;;
56667;SDS011;42542;48.360;10.958;2023-02-28T19:47:50;25.43;;;8.37;;
56667;SDS011;42542;48.360;10.958;2023-02-28T19:50:56;24.13;;;8.60;;
56667;SDS011;42542;48.360;10.958;2023-02-28T19:53:59;19.52;;;7.45;;
56667;SDS011;42542;48.360;10.958;2023-02-28T19:57:00;22.47;;;8.57;;
56667;SDS011;42542;48.360;10.958;2023-02-28T20:00:02;22.35;;;7.72;;
56667;SDS011;42542;48.360;10.958;2023-02-28T20:03:12;26.90;;;8.70;;
56667;SDS011;42542;48.360;10.958;2023-02-28T20:06:15;19.63;;;7.65;;
56667;SDS011;42542;48.360;10.958;2023-02-28T20:09:17;24.25;;;8.70;;
56667;SDS011;42542;48.360;10.958;2023-02-28T20:12:20;21.92;;;7.72;;
56667;SDS011;42542;48.360;10.958;2023-02-28T20:15:24;23.02;;;8.40;;
56667;SDS011;42542;48.360;10.958;2023-02-28T20:18:26;21.80;;;8.57;;
56667;SDS011;42542;48.360;10.958;2023-02-28T20:21:28;22.83;;;8.30;;
56667;SDS011;42542;48.360;10.958;2023-02-28T20:24:30;20.90;;;8.10;;
56667;SDS011;42542;48.360;10.958;2023-02-28T20:27:32;20.40;;;8.23;;
56667;SDS011;42542;48.360;10.958;2023-02-28T20:30:37;20.50;;;8.15;;
56667;SDS011;42542;48.360;10.958;2023-02-28T20:33:41;20.48;;;8.25;;